createdAt,value
2019-01-17T00:03:19.844Z,20.7
2019-01-17T00:13:23.346Z,20.5
2019-01-17T00:23:26.841Z,20.6
2019-01-17T00:33:30.371Z,20.5
2019-01-17T00:43:33.860Z,20.5
2019-01-17T00:53:37.364Z,20.5
2019-01-17T01:03:40.830Z,20.5
2019-01-17T01:13:44.328Z,20.4
2019-01-17T01:23:47.852Z,20.3
2019-01-17T01:33:51.366Z,20.3
2019-01-17T01:43:54.898Z,20.3
2019-01-17T01:53:58.388Z,20.3
2019-01-17T02:04:01.884Z,20.3
2019-01-17T02:14:05.404Z,20.3
2019-01-17T02:24:08.884Z,20.2
2019-01-17T02:34:12.471Z,20.2
2019-01-17T02:44:15.964Z,20.1
2019-01-17T02:54:19.474Z,20.2
2019-01-17T03:04:23.001Z,20.2
2019-01-17T03:14:26.547Z,20.2
2019-01-17T03:24:30.111Z,20.1
2019-01-17T03:34:33.600Z,20.1
2019-01-17T03:44:37.105Z,20
2019-01-17T03:54:40.638Z,20
2019-01-17T04:04:45.382Z,20.1
2019-01-17T04:14:48.895Z,20
2019-01-17T04:24:57.250Z,20.3
2019-01-17T04:35:01.026Z,20.2
2019-01-17T04:45:04.553Z,20.1
2019-01-17T04:55:08.081Z,20.1
2019-01-17T05:05:11.594Z,20.1
2019-01-17T05:15:15.098Z,20.2
2019-01-17T05:25:18.610Z,20.2
2019-01-17T05:35:22.123Z,20.2
2019-01-17T05:45:25.648Z,20.5
2019-01-17T05:55:29.159Z,20.7
2019-01-17T06:05:32.690Z,20.8
2019-01-17T06:15:36.215Z,20.8
2019-01-17T06:25:39.733Z,20.6
2019-01-17T06:35:43.263Z,12.6
2019-01-17T06:45:46.786Z,20.6
2019-01-17T06:55:50.338Z,22.1
2019-01-17T07:05:53.856Z,22.5
2019-01-17T07:15:57.390Z,22.5
2019-01-17T07:26:00.856Z,22.2
2019-01-17T07:36:04.346Z,22.2
2019-01-17T07:46:07.876Z,22.1
2019-01-17T07:56:11.346Z,22
2019-01-17T08:06:14.849Z,21.8
2019-01-17T08:16:18.350Z,21.9
2019-01-17T08:26:21.812Z,21.8
2019-01-17T08:36:25.311Z,21.9
2019-01-17T08:46:28.805Z,22.2
2019-01-17T08:56:32.301Z,22.4
2019-01-17T09:06:35.800Z,22.5
2019-01-17T09:16:39.305Z,22.5
2019-01-17T09:26:42.760Z,22.3
2019-01-17T09:36:46.282Z,22.3
2019-01-17T09:46:49.784Z,22.4
2019-01-17T09:56:53.417Z,22.4
2019-01-17T10:06:56.935Z,22.4
2019-01-17T10:17:00.435Z,22.5
2019-01-17T10:27:03.928Z,22.6
2019-01-17T10:37:07.404Z,22.6
2019-01-17T10:47:10.893Z,22.7
2019-01-17T10:57:14.407Z,22.7
2019-01-17T11:07:17.904Z,22.7
2019-01-17T11:17:21.416Z,22.8
2019-01-17T11:27:24.983Z,22.8
2019-01-17T11:37:28.505Z,22.8
2019-01-17T11:47:32.001Z,22.9
2019-01-17T11:57:35.543Z,23
2019-01-17T12:07:39.052Z,23
2019-01-17T12:17:42.595Z,23
2019-01-17T12:27:46.057Z,23
2019-01-17T12:37:49.566Z,22.9
2019-01-17T12:47:53.076Z,23.1
2019-01-17T12:57:56.605Z,22.9
2019-01-17T13:08:00.112Z,22.8
2019-01-17T13:18:03.613Z,22.8
2019-01-17T13:28:07.090Z,22.9
2019-01-17T13:38:10.598Z,22.9
2019-01-17T13:48:14.137Z,23
2019-01-17T13:58:18.615Z,23
2019-01-17T14:08:22.139Z,23.1
2019-01-17T14:18:27.906Z,23.1
2019-01-17T14:28:31.523Z,23.1
2019-01-17T14:38:35.046Z,23.2
2019-01-17T14:48:38.568Z,23.1
2019-01-17T14:58:42.073Z,23.1
2019-01-17T15:08:45.577Z,23.2
2019-01-17T15:18:49.092Z,23.1
2019-01-17T15:28:52.603Z,23.2
2019-01-17T15:38:56.096Z,23
2019-01-17T15:48:59.619Z,22.9
2019-01-17T15:59:03.113Z,22.9
2019-01-17T16:09:06.632Z,22.9
2019-01-17T16:19:10.115Z,22.9
2019-01-17T16:29:13.607Z,22.9
2019-01-17T16:39:17.115Z,22.8
2019-01-17T16:49:20.636Z,22.9
2019-01-17T16:59:24.174Z,22.9
2019-01-17T17:09:27.667Z,22.9
2019-01-17T17:19:31.205Z,22.7
2019-01-17T17:29:34.699Z,22.7
2019-01-17T17:39:38.264Z,22.7
2019-01-17T17:49:41.736Z,22.6
2019-01-17T17:59:45.213Z,22.5
2019-01-17T18:09:48.706Z,22.5
2019-01-17T18:19:52.224Z,22.4
2019-01-17T18:29:55.721Z,22.4
2019-01-17T18:39:59.220Z,22.4
2019-01-17T18:50:02.736Z,22.3
2019-01-17T19:00:06.201Z,22.2
2019-01-17T19:10:09.711Z,22.3
2019-01-17T19:20:13.182Z,22.2
2019-01-17T19:30:16.669Z,22.2
2019-01-17T19:40:20.195Z,22.1
2019-01-17T19:50:23.708Z,22
2019-01-17T20:00:27.227Z,21.9
2019-01-17T20:10:30.747Z,22
2019-01-17T20:20:34.267Z,21.9
2019-01-17T20:30:37.778Z,22.1
2019-01-17T20:40:41.281Z,22.4
2019-01-17T20:50:44.797Z,22.7
2019-01-17T21:00:48.321Z,22.6
2019-01-17T21:10:51.820Z,22.4
2019-01-17T21:20:55.340Z,22.1
2019-01-17T21:30:58.828Z,21.9
2019-01-17T21:41:02.349Z,21.7
2019-01-17T21:51:05.873Z,21.6
2019-01-17T22:01:09.448Z,21.6
2019-01-17T22:11:12.968Z,21.5
2019-01-17T22:21:16.479Z,21.5
2019-01-17T22:31:20.035Z,21.6
2019-01-17T22:41:23.546Z,21.3
2019-01-17T22:51:27.071Z,21.3
2019-01-17T23:01:30.572Z,21.3
2019-01-17T23:11:34.091Z,21.3
2019-01-17T23:21:37.597Z,21.4
2019-01-17T23:31:41.113Z,21.4
2019-01-17T23:41:44.625Z,21.3
2019-01-17T23:51:48.108Z,21.3
